空港情報

日本の空港の気象及び、管制情報です。
気象情報はより詳細な情報が取得できる「AVIATION WEATER CENTER」 から取得しているため、VATSIMの気象情報と若干のタイムラグが生じることがあります。

VRCのフィールド設定用空港一覧はこちらをご覧ください。

RJCG Sapporo Control

RJCW / Wakkanai
VMC

NO RADAR

RADIO

08/26 2200x45

民間 civil

9999

240@13KT

29.94

RJCW 180900Z 24013KT 9999 FEW030 SCT040 BKN050 04/M04 Q1014

RJER / Rishiri

NO RADAR

REMOTE

25/07 1800x45

民間 civil

過去5時間に発表されたMETARがありません。

RJEB / Monbetsu
VMC

NO RADAR

REMOTE

32/14 2000x45

民間 civil

9999

000@2KT

29.97

RJEB 180700Z VRB02KT 9999 -SHRA FEW030 SCT050 BKN060 04/M00 Q1015

RJCM / Memanbetsu
VMC

NO RADAR

TOWER

36/18 2500x45

民間 civil

9999

190@7KT

30.00

RJCM 181100Z 19007KT 9999 FEW030 00/M02 Q1016

RJEC / Asahikawa
VMC

NO RADAR

TOWER

34/16 2500x60

民間 civil

9999

170@7KT

30.00

RJEC 181100Z 17007KT 9999 FEW040 SCT060 01/M02 Q1016

RJCN / Nakashibetsu
VMC

NO RADAR

RADIO

08/26 2000x45

民間 civil

9999

250@3KT

29.97

RJCN 180900Z 25003KT 9999 FEW030 SCT060 00/M03 Q1015

RJCK / Kushiro
VMC

NO RADAR

TOWER

17/35 2500x45

民間 civil

9999

280@3KT

30.00

RJCK 181100Z 28003KT 250V320 9999 FEW030 SCT150 BKN/// 04/M05 Q1016

RJCO / Sapporo

RJCO_APP

TOWER

14/32 1500x30

共用 dual

過去5時間に発表されたMETARがありません。

RJCJ / Chitose

RJCC_APP

TOWER

36R/18L 3000x60
36L/18R 2700x45

自衛隊 military

過去5時間に発表されたMETARがありません。

RJCC / NewChitose
VMC

RJCC_APP

TOWER

01L/19R 3000x60
01R/19L 3000x60

民間 civil

9999

120@3KT

30.06

RJCC 181130Z 12003KT 9999 FEW030 BKN060 03/M02 Q1018 RMK 1CU030 6CU060 A3007

RJCB / Obihiro
VMC

NO RADAR

TOWER

35/17 2500x45

民間 civil

9999

000@1KT

30.03

RJCB 181100Z VRB01KT 9999 FEW040 BKN/// M02/M05 Q1017

RJEO / Okushiri

NO RADAR

REMOTE

12/30 1500x45

民間 civil

過去5時間に発表されたMETARがありません。

RJCH / Hakodate
VMC

RJCH_APP

TOWER

12/30 3000x45

民間 civil

9999

010@5KT

30.06

RJCH 181100Z 01005KT 9999 FEW030 SCT050 BKN/// 04/00 Q1018

RJSA / Aomori
VMC

NO RADAR

TOWER

24/06 3000x60

民間 civil

9999

170@4KT

30.06

RJSA 181100Z 17004KT 9999 FEW030 SCT110 BKN/// M00/M01 Q1018

RJSO / Ominato

RJSM_APP

TOWER

04/22 600x45

自衛隊 military

過去5時間に発表されたMETARがありません。

RJSM / Misawa

RJSM_APP

TOWER

10/28 3050x45

共用 dual

過去5時間に発表されたMETARがありません。

RJSH / Hachinohe

RJSM_APP

TOWER

25/07 2250x45

自衛隊 military

過去5時間に発表されたMETARがありません。

RJSK / Akita
VMC

NO RADAR

TOWER

10/28 2500x60

民間 civil

9999

100@4KT

30.06

RJSK 181100Z 10004KT 060V120 9999 FEW030 BKN160 BKN/// 06/03 Q1018

RJSI / Hanamaki
VMC

NO RADAR

RADIO

20/02 2500x45

民間 civil

9999

050@3KT

30.09

RJSI 181000Z 05003KT 010V150 9999 FEW030 SCT/// 03/01 Q1019

RJSR / Odate-Noshiro
VMC

NO RADAR

REMOTE

11/29 2000x45

民間 civil

9999

330@1KT

30.09

RJSR 181000Z 33001KT 9999 FEW030 BKN/// 03/03 Q1019

RJTG Tokyo Control

RJSY / Shonai
VMC

NO RADAR

RADIO

09/27 2000x45

民間 civil

9999

110@5KT

30.03

RJSY 181100Z 11005KT 9999 FEW030 BKN150 BKN/// 06/04 Q1017

RJSC / Yamagata
VMC

NO RADAR

RADIO

01/19 2000x45

民間 civil

9999

000@1KT

30.06

RJSC 181000Z VRB01KT 9999 FEW040 SCT/// 04/03 Q1018

RJST / Matsushima

RJSS_APP

TOWER

07/25 2071x46
15/33 1500x46

自衛隊 military

過去5時間に発表されたMETARがありません。

RJSS / Sendai
VMC

RJSS_APP

TOWER

27/09 3000x45
12/30 1200x45

民間 civil

9999

280@3KT

30.09

RJSS 181100Z 28003KT 9999 FEW050 BKN/// 06/03 Q1019

RJSD / Sado

NO RADAR

REMOTE

10/28 890x25

民間 civil

過去5時間に発表されたMETARがありません。

RJSN / Niigata
VMC

RJSN_APP

TOWER

10/28 2500x45
04/22 1314x45

民間 civil

9999

090@3KT

30.00

RJSN 181100Z 09003KT 9999 FEW030 SCT100 BKN120 10/05 Q1016

RJSF / Fukushima
VMC

NO RADAR

RADIO

01/19 2500x60

民間 civil

9999

140@5KT

30.06

RJSF 181100Z 14005KT 090V180 9999 FEW040 BKN090 BKN/// 08/06 Q1018

RJAH / Ibaraki/Hyakuri
VMC

RJAH_APP

TOWER

03L/21R 2700x45
03R/21L 2700x45

共用 dual

9999

010@3KT

30.06

RJAH 181100Z 01003KT 9999 FEW025 BKN040 11/08 Q1018

RJTT / Tokyo
VMC

RJTT_APP

TOWER

34LR/16RL 3000x60
04/22&05/23 2500x60

民間 civil

9999

060@8KT

30.06

RJTT 181130Z 06008KT 9999 -RA FEW015 BKN035 BKN040 15/10 Q1018 NOSIG RMK 1CU015 5SC035 7SC040 A3007

RJAA / Narita
VMC

RJTT_APP

TOWER

34L/16R 4000x60
34R/16L 2500x60

民間 civil

9999

020@6KT

30.06

RJAA 181130Z 02006KT 350V060 9999 FEW020 BKN045 14/09 Q1018 NOSIG RMK 1CU020 7SC045 A3007

RJTL / Shimofusa

RJTT_APP

TOWER

19/01 2250x45

自衛隊 military

過去5時間に発表されたMETARがありません。

RJTE / Tateyama

RJTT_APP

TOWER

09/27 300x45

自衛隊 military

過去5時間に発表されたMETARがありません。

RJTO / Oshima
VMC

NO RADAR

RADIO

03/21 1800x45

民間 civil

9999

070@5KT

30.03

RJTO 180700Z 07005KT 9999 SCT020 BKN050 16/12 Q1017

RJTK / Kisarazu

NO RADAR

TOWER

02/20 1830x45

自衛隊 military

過去5時間に発表されたMETARがありません。

RJAN / Niijima

NO RADAR

REMOTE

11/29 800x25

自衛隊 military

過去5時間に発表されたMETARがありません。

RJAZ / Kozushima

NO RADAR

REMOTE

11/29 800x25

民間 civil

過去5時間に発表されたMETARがありません。

RJTH / Hachijojima

NO RADAR

RADIO

26/08 2000x45

民間 civil

過去5時間に発表されたMETARがありません。

RJTF / Chofu
VMC

NO RADAR

Flight Service

35/17 800x30

民間 civil

9999

000@2KT

30.03

RJTF 180700Z VRB02KT 9999 FEW020 BKN035 BKN/// 16/08 Q1017

RJTQ / Miyake

NO RADAR

REMOTE

02/20 1200x30

民間 civil

過去5時間に発表されたMETARがありません。

RJTC / Tachikawa

NO RADAR

TOWER

01/19 900x45

自衛隊 military

過去5時間に発表されたMETARがありません。

RJTA / Atsugi

NO RADAR

TOWER

01/19 2438x45

自衛隊 military

過去5時間に発表されたMETARがありません。

RJTU / Utsunomiya

RJTY_APP

TOWER

01/19 1700x45

自衛隊 military

過去5時間に発表されたMETARがありません。

RJTJ / Iruma

RJTY_APP

TOWER

17/35 2000x45

自衛隊 military

過去5時間に発表されたMETARがありません。

RJTY / Yokota
VMC

RJTY_APP

TOWER

18/36 3353x60

自衛隊 military

9999

040@3KT

30.12

RJTY 181056Z AUTO 04003KT 10SM OVC026 13/09 A3012 RMK AO2 CIG 024 RWY18 SLP205 T01300085 FZRANO $

RJAF / Matsumoto
VMC

NO RADAR

RADIO

18/36 2000x45

民間 civil

9999

000@1KT

30.00

RJAF 180700Z VRB01KT 9999 FEW060 SCT130 BKN/// 12/04 Q1016

RJNS / Shizuoka
VMC

NO RADAR

RADIO

30/12 2500x60

民間 civil

9999

310@4KT

30.03

RJNS 181100Z 31004KT 9999 FEW025 SCT040 BKN050 15/10 Q1017

RJNY / Yaizu-Shizuhama
VMC

NO RADAR

TOWER

27/09 1500x45

自衛隊 military

9999

000@2KT

30.00

RJNY 181020Z VRB02KT 9999 FEW020 BKN045 BKN/// 17/11 Q1016 RMK 1CU020 5SC045 A3003

RJNH / Hamamatsu

RJNH_APP

TOWER

09/27 2550x60

自衛隊 military

過去5時間に発表されたMETARがありません。

RJGG / Chubu
VMC

RJGG_APP

TOWER

36/18 3500x60

民間 civil

9999

130@3KT

30.03

RJGG 181130Z 13003KT 9999 FEW030 BKN120 BKN160 17/07 Q1017 NOSIG

RJNA / Nagoya

RJGG_APP

TOWER

34/16 2740x45

民間 civil

過去5時間に発表されたMETARがありません。

RJNG / Gifu

RJGG_APP

TOWER

28/10 2710x46

自衛隊 military

過去5時間に発表されたMETARがありません。

RJOE / Akeno

RJOE_APP

TOWER

13/31 500x30
04/22 500x30

自衛隊 military

過去5時間に発表されたMETARがありません。

RJNK / Komatsu
VMC

RJNK_APP

TOWER

06/24 2700x45

共用 dual

9999

110@3KT

29.97

RJNK 181100Z 11003KT 070V140 9999 FEW030 SCT100 BKN150 12/08 Q1015

RJNW / Noto
VMC

NO RADAR

RADIO

25/07 2000x45

民間 civil

9999

000@2KT

30.03

RJNW 181000Z VRB02KT 9999 -RA FEW030 BKN070 OVC090 10/07 Q1017

RJNT / Toyama
VMC

NO RADAR

TOWER

20/02 2000x45

民間 civil

9999

160@3KT

30.00

RJNT 181100Z 16003KT 110V220 9999 FEW090 BKN120 12/09 Q1016

RJNF / Fukui

NO RADAR

REMOTE

18/36 1200x30

民間 civil

過去5時間に発表されたMETARがありません。

RJBD / Nanki-Shirahama
VMC

NO RADAR

RADIO

15/33 2000x45

民間 civil

9999

040@3KT

30.03

RJBD 181000Z 04003KT 020V110 9999 -SHRA FEW035 SCT050 BKN110 16/11 Q1017

RJOY / Yao
VMC

RJBB_APP

TOWER

27/09 1490x45
13/31 1200x30

民間 civil

9999

150@3KT

30.03

RJOY 181000Z 15003KT 110V170 9999 FEW060 SCT110 BKN140 16/08 Q1017

RJOO / Osaka
VMC

RJBB_APP

TOWER

32L/14R 3000x60
32R/14L 1830x45

民間 civil

9999

000@2KT

30.03

RJOO 181100Z VRB02KT 9999 FEW030 SCT060 BKN100 16/06 Q1017 RMK 1CU030 3SC060 5AC100 A3004

RJOB / Okayama
VMC

RJBB_APP

TOWER

07/25 3000x45

民間 civil

9999

290@3KT

30.00

RJOB 181100Z 29003KT 260V320 9999 FEW020 SCT035 BKN060 13/09 Q1016

RJBB / Kansai
VMC

RJBB_APP

TOWER

06R/24L 3500x60
06L/24R 4000x60

民間 civil

9999

160@7KT

30.03

RJBB 181130Z 16007KT 9999 FEW040 BKN120 17/11 Q1017 NOSIG

RJBE / Kobe
VMC

RJBB_APP

TOWER

09/27 2500x60

民間 civil

9999

270@3KT

30.03

RJBE 181100Z 27003KT 9999 VCSH FEW030 SCT050 BKN090 16/08 Q1017

RJBT / Tajima
VMC

NO RADAR

REMOTE

01/19 1200x30

民間 civil

9999

180@3KT

30.00

RJBT 180900Z 18003KT 150V210 9999 FEW030 SCT070 BKN100 14/14 Q1016

RJOR / Tottori
VMC

NO RADAR

RADIO

10/28 2000x45

民間 civil

9999

200@7KT

30.03

RJOR 181100Z 20007KT 9999 -SHRA FEW030 SCT045 BKN070 14/11 Q1017

RJNO / Oki

NO RADAR

REMOTE

07/25 2000x45

民間 civil

過去5時間に発表されたMETARがありません。

RJOH / Miho
VMC

RJOH_APP

TOWER

25/07 2500x45

共用 dual

9999

230@8KT

30.03

RJOH 181100Z 23008KT 9999 FEW050 BKN080 OVC140 14/07 Q1017

RJOC / Izumo
VMC

RJOH_APP

RADIO

07/25 2000x45

共用 dual

9999

230@5KT

30.00

RJOC 181100Z 23005KT 9999 SCT050 BKN070 14/05 Q1016

RJDG Fukuoka Control

RJOT / Takamatsu
VMC

RJBB_APP

TOWER

26/08 2500x60

民間 civil

9999

130@5KT

30.03

RJOT 181100Z 13005KT 9999 FEW020 SCT040 BKN080 13/10 Q1017

RJOK / Kochi
VMC

RJBB_APP

TOWER

32/14 2500x45

民間 civil

9999

040@3KT

30.00

RJOK 181100Z 04003KT 9999 FEW030 SCT050 BKN090 17/11 Q1016

RJOS / Tokushima

RJOS_APP

TOWER

29/11 2500x45

共用 dual

過去5時間に発表されたMETARがありません。

RJOA / Hiroshima
VMC

RJOA_APP

TOWER

10/28 3000x60

民間 civil

9999

340@4KT

30.03

RJOA 181100Z 34004KT 270V070 9999 FEW015 BKN070 BKN120 12/08 Q1017

RJBH / Hiroshimanishi

NO RADAR

Flight Service

04/22 1800x45

民間 civil

過去5時間に発表されたMETARがありません。

RJOI / Iwakuni
VMC

RJOI_APP

TOWER

02/20 2440x60

共用 dual

9999

300@3KT

30.04

RJOI 181055Z 30003KT 9999 FEW030 BKN050 OVC080 16/08 A3004 RMK SLP173 T01560083

RJOM / Matsuyama
VMC

RJOI_APP

TOWER

14/32 2500x45

民間 civil

9999

120@6KT

30.03

RJOM 181100Z 12006KT 9999 FEW025 BKN080 BKN120 15/12 Q1017

RJOZ / Ozuki

RJFZ_APP

TOWER

35/17 1201x61
12/30 899x46

自衛隊 military

過去5時間に発表されたMETARがありません。

RJOF / Hofu
VMC

RJFZ_APP

TOWER

30/12 1180x60
01/19 1480x45

自衛隊 military

9999

280@8KT

30.03

RJOF 180818Z 28008KT 9999 FEW012 SCT025 BKN050 14/11 Q1017 RMK 1CU012 3CU025 6SC050 A3006

RJDC / Yamaguchi-Ube
VMC

RJFZ_APP

RADIO

07/25 2500x45

民間 civil

9999

030@3KT

30.03

RJDC 181100Z 03003KT 9999 FEW030 SCT080 BKN170 13/10 Q1017

RJFR / Kitakyushu
VMC

RJFZ_APP

TOWER

18/36 2500x60

民間 civil

9999

000@1KT

30.03

RJFR 181100Z VRB01KT 9999 FEW030 SCT070 BKN170 13/09 Q1017

RJFZ / Tsuiki

RJFZ_APP

TOWER

25/07 2399x46

自衛隊 military

過去5時間に発表されたMETARがありません。

RJOW / Iwami
VMC

NO RADAR

REMOTE

11/29 2000x45

民間 civil

8000

160@5KT

30.03

RJOW 181000Z 16005KT 8000 FEW040 BKN050 12/12 Q1017

RJDT / Tsushima
VMC

NO RADAR

REMOTE

32/14 1900x45

民間 civil

9999

350@6KT

30.03

RJDT 181100Z 35006KT CAVOK 13/M00 Q1017

RJFF / Fukuoka
VMC

RJFF_APP

TOWER

16/34 2800x60

民間 civil

9999

120@3KT

30.03

RJFF 181130Z 12003KT 060V170 9999 FEW035 BKN070 BKN180 13/08 Q1017 NOSIG RMK 1CU035 5AC070 7AC180 A3003

RJFS / Saga
VMC

RJFF_APP

RADIO

29/11 2000x45

民間 civil

9999

070@5KT

30.03

RJFS 181100Z 07005KT 9999 FEW035 BKN060 13/10 Q1017

RJFA / Ashiya

RJFF_APP

TOWER

12/30 1640x46

自衛隊 military

過去5時間に発表されたMETARがありません。

RJDB / Iki

RJFF_APP

REMOTE

20/02 1200x30

民間 civil

過去5時間に発表されたMETARがありません。

RJFO / Oita
VMC

RJFO_APP

TOWER

01/19 3000x45

民間 civil

9999

310@3KT

30.03

RJFO 181100Z 31003KT 9999 FEW025 SCT080 14/10 Q1017

RJFU / Nagasaki
VMC

RJFU_APP

TOWER

32/14 3000x60

民間 civil

9999

020@4KT

30.03

RJFU 181100Z 02004KT 9999 FEW025 BKN060 BKN120 15/09 Q1017

RJDU / Omura

RJFU_APP

TOWER

18/36 1200x30

自衛隊 military

過去5時間に発表されたMETARがありません。

RJFE / Fukue

NO RADAR

RADIO

03/21 2000x45

民間 civil

過去5時間に発表されたMETARがありません。

RJDO / Ojika

NO RADAR

REMOTE

03/21 800x30

民間 civil

過去5時間に発表されたMETARがありません。

RJDK / Kamigoto

NO RADAR

REMOTE

17/35 800x30

民間 civil

過去5時間に発表されたMETARがありません。

RJDA / Amakusa

NO RADAR

Flight Service

31/13 1000x30

民間 civil

過去5時間に発表されたMETARがありません。

RJFT / Kumamoto
VMC

RJFT_APP

TOWER

07/25 3000x45

民間 civil

9999

060@5KT

30.03

RJFT 181100Z 06005KT CAVOK 11/11 Q1017

RJFN / Nyutabaru

RJFM_APP

TOWER

28/10 2701x46

自衛隊 military

過去5時間に発表されたMETARがありません。

RJFM / Miyazaki
VMC

RJFM_APP

TOWER

27/09 2500x45

民間 civil

9999

270@4KT

30.00

RJFM 181100Z 27004KT 9999 FEW020 BKN100 15/10 Q1016

RJFK / Kagoshima
VMC

RJFK_APP

TOWER

34/16 3000x45

民間 civil

9999

360@4KT

30.00

RJFK 181100Z 36004KT 9999 FEW030 BKN130 12/08 Q1016 RMK 1CU030 5AC130 A3002

RJFY / Kanoya

RJFY_APP

TOWER

26L/08R 2250x45
26R/08L 1200x40

自衛隊 military

過去5時間に発表されたMETARがありません。

RJFG / Tanegashima
VMC

NO RADAR

RADIO

31/13 2000x45

民間 civil

9999

280@6KT

30.03

RJFG 180900Z 28006KT 9999 FEW060 BKN070 16/08 Q1017

RJFC / Yakushima

NO RADAR

REMOTE

14/32 1500x45

民間 civil

過去5時間に発表されたMETARがありません。

RJBG Kobe Control

ROAH / Naha
VMC

ROAH_APP

TOWER

36/18 3000x45

共用 dual

9999

160@9KT

29.97

ROAH 181130Z 16009KT 9999 FEW025 SCT045 25/18 Q1015 RMK 1CU025 4SC045 A3000

RORA / Aguni

ROAH_APP

REMOTE

01/19 800x25

民間 civil

過去5時間に発表されたMETARがありません。

ROKJ / Kumejima

ROAH_APP

REMOTE

03/21 2000x45

民間 civil

過去5時間に発表されたMETARがありません。

RODN / Kadena
VMC

ROAH_APP

TOWER

05L/23R 3688x91
05R/23L 3688x61

自衛隊 military

9999

170@5KT

30.01

RODN 181056Z AUTO 17005KT 10SM OVC046 24/19 A3001 RMK AO2 SLP168 T02390192 PWINO $

ROTM / Futenma
VMC

ROAH_APP

TOWER

06/24 2740x45

自衛隊 military

9999

150@7KT

30.03

ROTM 181056Z 15007KT 9999 BKN050 24/21 A3003 RMK SLP154 STNPR29725 T02440206

RORS / Shimojishima
VMC

RORS_APP

TOWER

17/35 3000x60

民間 civil

9999

160@7KT

29.97

RORS 181000Z 16007KT 9999 FEW030 24/22 Q1015

ROMY / Miyako
VMC

RORS_APP

TOWER

04/22 2000x45

民間 civil

9999

160@4KT

29.97

ROMY 181100Z 16004KT 9999 FEW030 23/22 Q1015

ROIG / New Ishigaki
VMC

RORS_APP

TOWER

22/04 2000x45

民間 civil

9999

240@3KT

29.97

ROIG 181100Z 24003KT 190V280 9999 FEW010 23/23 Q1015

RORT / Tarama

RORS_APP

REMOTE

36/18 1500x45

民間 civil

過去5時間に発表されたMETARがありません。

RJKA / Amami
VMC

NO RADAR

RADIO

03/21 2000x45

民間 civil

9999

150@7KT

30.00

RJKA 181000Z 15007KT 9999 FEW025 BKN035 22/17 Q1016

RJKI / Kikai

NO RADAR

REMOTE

07/25 1200x30

民間 civil

過去5時間に発表されたMETARがありません。

RJKN / Tokunoshima

NO RADAR

REMOTE

19/01 2000x45

民間 civil

過去5時間に発表されたMETARがありません。

RJKB / Okierabu

NO RADAR

REMOTE

04/22 1350x45

民間 civil

過去5時間に発表されたMETARがありません。

RORY / Yoron
VMC

NO RADAR

REMOTE

32/14 1320x30

民間 civil

9999

160@10KT

30.00

RORY 181100Z AUTO 16010KT 9999 NCD 24/19 Q1016

RORK / Kitadaito

NO RADAR

REMOTE

03/21 1500x45

民間 civil

過去5時間に発表されたMETARがありません。

ROMD / Minami-daito

NO RADAR

REMOTE

02/20 1500x45

民間 civil

過去5時間に発表されたMETARがありません。

ROYN / Yonaguni
VMC

NO RADAR

REMOTE

26/08 2000x45

民間 civil

9999

190@7KT

29.97

ROYN 181100Z AUTO 19007KT 9999 FEW014 SCT060 24/23 Q1015

RORH / Hateruma

NO RADAR

REMOTE

02/20 800x25

民間 civil

過去5時間に発表されたMETARがありません。

ROKR / Kerama

NO RADAR

REMOTE

02/20 800x25

民間 civil

過去5時間に発表されたMETARがありません。